Portada
METAR-TAF:

METAR-TAF

Aeroports :

Ghat, Líbia

latitud: 25-08N, longitud: 010-09E, altitud: 699 m

METAR: manca

Hora: 20:22 (18:22 UTC)

Pronòstic

L'informe es va fer fa 31 hores i 22 minuts, a les 11:00 UTC
Pronòstic vàlid del 22 a les 12 UTC al 23 a les 12 UTC
Vent 10 kt del Est/Nord-Est
Visibilitat: 8000 m

TAF: HLGT 221100Z 2212/2312 06010KT 8000 NSC

Observacions i pronòstics meteorològics de més de 4000 aeroports (METAR i TAF).

Les estacions disponibles són els punts grocs i vermells al mapa.

Posi el ratolí al punt desitjat per veure el nom de l'estació.

Feu clic per veure les observacions i els pronòstics meteorològics.

Per canviar el mapa: feu clic els botons verds amb una creu de color negre per apropar; al botó verd amb un guió per allunyar la imatge; o en les fletxes verdes per a mapes adjacents.


METAR-TAF: